createdAt,value
2017-09-01T00:00:12.878Z,0
2017-09-01T00:00:38.991Z,0
2017-09-01T00:01:05.091Z,0
2017-09-01T00:01:31.213Z,0
2017-09-01T00:01:57.316Z,0
2017-09-01T00:02:23.432Z,0
2017-09-01T00:02:49.550Z,0
2017-09-01T00:03:15.682Z,0
2017-09-01T00:03:41.793Z,0
2017-09-01T00:04:07.895Z,0
2017-09-01T00:04:34.009Z,0
2017-09-01T00:05:00.136Z,0
2017-09-01T00:05:26.240Z,0
2017-09-01T00:05:52.365Z,0
2017-09-01T00:06:18.467Z,0
2017-09-01T00:06:44.582Z,0
2017-09-01T00:07:10.690Z,0
2017-09-01T00:07:36.808Z,0
2017-09-01T00:08:02.933Z,0
2017-09-01T00:08:29.048Z,0
2017-09-01T00:08:55.154Z,0
2017-09-01T00:09:21.268Z,0
2017-09-01T00:09:47.373Z,0
2017-09-01T00:10:13.512Z,0
2017-09-01T00:10:39.617Z,0
2017-09-01T00:11:05.724Z,0
2017-09-01T00:11:31.840Z,0
2017-09-01T00:11:57.945Z,0
2017-09-01T00:12:24.057Z,0
2017-09-01T00:12:50.171Z,0
2017-09-01T00:13:16.275Z,0
2017-09-01T00:13:42.389Z,0
2017-09-01T00:14:08.495Z,0
2017-09-01T00:14:34.605Z,0
2017-09-01T00:15:00.720Z,0
2017-09-01T00:15:26.828Z,0
2017-09-01T00:15:52.932Z,0
2017-09-01T00:16:19.043Z,0
2017-09-01T00:16:45.156Z,0
2017-09-01T00:17:11.260Z,0
2017-09-01T00:17:37.393Z,0
2017-09-01T00:18:03.497Z,0
2017-09-01T00:18:29.602Z,0
2017-09-01T00:18:55.717Z,0
2017-09-01T00:19:21.826Z,0
2017-09-01T00:19:47.942Z,0
2017-09-01T00:20:14.049Z,0
2017-09-01T00:20:40.160Z,0
2017-09-01T00:21:06.279Z,0
2017-09-01T00:21:32.392Z,0
2017-09-01T00:21:58.505Z,0
2017-09-01T00:22:24.616Z,0
2017-09-01T00:22:50.724Z,0
2017-09-01T00:23:16.833Z,0
2017-09-01T00:23:42.967Z,0
2017-09-01T00:24:09.083Z,0
2017-09-01T00:24:35.190Z,0
2017-09-01T00:25:01.304Z,0
2017-09-01T00:25:27.409Z,0
2017-09-01T00:25:53.518Z,0
2017-09-01T00:26:19.634Z,0
2017-09-01T00:26:45.746Z,0
2017-09-01T00:27:11.858Z,0
2017-09-01T00:27:37.986Z,0
2017-09-01T00:28:04.094Z,0
2017-09-01T00:28:30.203Z,0
2017-09-01T00:28:56.320Z,0
2017-09-01T00:29:22.430Z,0
2017-09-01T00:29:48.534Z,0
2017-09-01T00:30:14.649Z,0
2017-09-01T00:30:40.763Z,0
2017-09-01T00:31:06.869Z,0
2017-09-01T00:31:32.984Z,0
2017-09-01T00:31:59.095Z,0
2017-09-01T00:32:25.201Z,0
2017-09-01T00:32:51.319Z,0
2017-09-01T00:33:17.444Z,0
2017-09-01T00:33:43.556Z,0
2017-09-01T00:34:09.667Z,0
2017-09-01T00:34:35.778Z,0
2017-09-01T00:35:01.884Z,0
2017-09-01T00:35:27.998Z,0
2017-09-01T00:35:54.107Z,0
2017-09-01T00:36:20.212Z,0
2017-09-01T00:36:46.323Z,0
2017-09-01T00:37:12.439Z,0
2017-09-01T00:37:38.542Z,0
2017-09-01T00:38:04.650Z,0
2017-09-01T00:38:30.763Z,0
2017-09-01T00:38:56.867Z,0
2017-09-01T00:39:22.976Z,0
2017-09-01T00:39:49.094Z,0
2017-09-01T00:40:15.198Z,0
2017-09-01T00:40:41.308Z,0
2017-09-01T00:41:07.413Z,0
2017-09-01T00:41:33.521Z,0
2017-09-01T00:41:59.653Z,0
2017-09-01T00:42:25.753Z,0
2017-09-01T00:42:51.863Z,0
2017-09-01T00:43:17.976Z,0
2017-09-01T00:43:44.087Z,0
2017-09-01T00:44:10.200Z,0
2017-09-01T00:44:36.303Z,0
2017-09-01T00:45:02.410Z,0
2017-09-01T00:45:28.522Z,0
2017-09-01T00:45:54.634Z,0
2017-09-01T00:46:20.735Z,0
2017-09-01T00:46:46.849Z,0
2017-09-01T00:47:12.958Z,0
2017-09-01T00:47:39.067Z,0
2017-09-01T00:48:05.179Z,0
2017-09-01T00:48:31.287Z,0
2017-09-01T00:48:57.393Z,0
2017-09-01T00:49:23.496Z,0
2017-09-01T00:49:49.603Z,0
2017-09-01T00:50:15.745Z,0
2017-09-01T00:50:41.860Z,0
2017-09-01T00:51:07.972Z,0
2017-09-01T00:51:34.075Z,0
2017-09-01T00:52:00.181Z,0
2017-09-01T00:52:26.291Z,0
2017-09-01T00:52:52.397Z,0
2017-09-01T00:53:18.506Z,0
2017-09-01T00:53:44.620Z,0
2017-09-01T00:54:10.722Z,0
2017-09-01T00:54:36.834Z,0
2017-09-01T00:55:02.955Z,0
2017-09-01T00:55:29.062Z,0
2017-09-01T00:55:55.174Z,0
2017-09-01T00:56:21.278Z,0
2017-09-01T00:56:47.387Z,0
2017-09-01T00:57:13.499Z,0
2017-09-01T00:57:39.602Z,0
2017-09-01T00:58:05.710Z,0
2017-09-01T00:58:31.822Z,0
2017-09-01T00:58:57.933Z,0
2017-09-01T00:59:24.037Z,0
2017-09-01T00:59:50.178Z,0
2017-09-01T01:00:16.291Z,0
2017-09-01T01:00:42.400Z,0
2017-09-01T01:01:08.507Z,0
2017-09-01T01:01:34.611Z,0
2017-09-01T01:02:00.726Z,0
2017-09-01T01:02:26.836Z,0
2017-09-01T01:02:52.942Z,0
2017-09-01T01:03:19.043Z,0
2017-09-01T01:03:45.152Z,0
2017-09-01T01:04:11.253Z,0
2017-09-01T01:04:37.387Z,0
2017-09-01T01:05:03.504Z,0
2017-09-01T01:05:29.609Z,0
2017-09-01T01:05:55.724Z,0
2017-09-01T01:06:21.832Z,0
2017-09-01T01:06:47.939Z,0
2017-09-01T01:07:14.053Z,0
2017-09-01T01:07:40.161Z,0
2017-09-01T01:08:06.266Z,0
2017-09-01T01:08:32.378Z,0
2017-09-01T01:08:58.491Z,0
2017-09-01T01:09:24.598Z,0
2017-09-01T01:09:50.710Z,0
2017-09-01T01:10:16.819Z,0
2017-09-01T01:10:42.925Z,0
2017-09-01T01:11:09.028Z,0
2017-09-01T01:11:35.138Z,0
2017-09-01T01:12:01.246Z,0
2017-09-01T01:12:27.362Z,0
2017-09-01T01:12:53.464Z,0
2017-09-01T01:13:19.567Z,0
2017-09-01T01:13:45.674Z,0
2017-09-01T01:14:11.787Z,0
2017-09-01T01:14:37.892Z,0
2017-09-01T01:15:04.003Z,0
2017-09-01T01:15:30.112Z,0
2017-09-01T01:15:56.224Z,0
2017-09-01T01:16:22.333Z,0
2017-09-01T01:16:48.438Z,0
2017-09-01T01:17:14.545Z,0
2017-09-01T01:17:40.654Z,0
2017-09-01T01:18:06.768Z,0
2017-09-01T01:18:32.870Z,0
2017-09-01T01:18:58.979Z,0
2017-09-01T01:19:25.095Z,0
2017-09-01T01:19:51.199Z,0
2017-09-01T01:20:17.311Z,0
2017-09-01T01:20:43.421Z,0
2017-09-01T01:21:09.529Z,0
2017-09-01T01:21:35.639Z,0
2017-09-01T01:22:01.740Z,0
2017-09-01T01:22:27.849Z,0
2017-09-01T01:22:53.961Z,0
2017-09-01T01:23:20.085Z,0
2017-09-01T01:23:46.178Z,0
2017-09-01T01:24:12.288Z,0
2017-09-01T01:24:38.393Z,0
2017-09-01T01:25:04.507Z,0
2017-09-01T01:25:30.602Z,0
2017-09-01T01:25:56.710Z,0
2017-09-01T01:26:22.824Z,0
2017-09-01T01:26:48.930Z,0
2017-09-01T01:27:15.040Z,0
2017-09-01T01:27:41.146Z,0
2017-09-01T01:28:07.259Z,0
2017-09-01T01:28:33.369Z,0
2017-09-01T01:28:59.476Z,0
2017-09-01T01:29:25.579Z,0
2017-09-01T01:29:51.699Z,0
2017-09-01T01:30:17.811Z,0
2017-09-01T01:30:43.913Z,0
2017-09-01T01:31:10.018Z,0
2017-09-01T01:31:36.127Z,0
2017-09-01T01:32:02.232Z,0
2017-09-01T01:32:28.342Z,0
2017-09-01T01:32:54.448Z,0
2017-09-01T01:33:20.563Z,0
2017-09-01T01:33:46.667Z,0
2017-09-01T01:34:12.778Z,0
2017-09-01T01:34:38.891Z,0
2017-09-01T01:35:05.005Z,0
2017-09-01T01:35:31.109Z,0
2017-09-01T01:35:57.220Z,0
2017-09-01T01:36:23.324Z,0
2017-09-01T01:36:49.440Z,0
2017-09-01T01:37:15.542Z,0
2017-09-01T01:37:41.656Z,0
2017-09-01T01:38:07.764Z,0
2017-09-01T01:38:33.873Z,0
2017-09-01T01:38:59.982Z,0
2017-09-01T01:39:26.091Z,0
2017-09-01T01:39:52.200Z,0
2017-09-01T01:40:18.304Z,0
2017-09-01T01:40:44.417Z,0
2017-09-01T01:41:10.521Z,0
2017-09-01T01:41:36.630Z,0
2017-09-01T01:42:02.756Z,0
2017-09-01T01:42:28.866Z,0
2017-09-01T01:42:54.970Z,0
2017-09-01T01:43:21.084Z,0
2017-09-01T01:43:47.187Z,0
2017-09-01T01:44:13.294Z,0
2017-09-01T01:44:39.408Z,0
2017-09-01T01:45:05.511Z,0
2017-09-01T01:45:31.625Z,0
2017-09-01T01:45:57.752Z,0
2017-09-01T01:46:23.854Z,0
2017-09-01T01:46:49.961Z,0
2017-09-01T01:47:16.073Z,0
2017-09-01T01:47:42.183Z,0
2017-09-01T01:48:08.286Z,0
2017-09-01T01:48:34.400Z,0
2017-09-01T01:49:00.509Z,0
2017-09-01T01:49:26.617Z,0
2017-09-01T01:49:52.727Z,0
2017-09-01T01:50:18.840Z,0
2017-09-01T01:50:44.937Z,0
2017-09-01T01:51:11.042Z,0
2017-09-01T01:51:37.192Z,0
2017-09-01T01:52:03.296Z,0
2017-09-01T01:52:29.406Z,0
2017-09-01T01:52:55.518Z,0
2017-09-01T01:53:21.624Z,0
2017-09-01T01:53:47.728Z,0
2017-09-01T01:54:13.841Z,0
2017-09-01T01:54:39.955Z,0
2017-09-01T01:55:06.069Z,0
2017-09-01T01:55:32.177Z,0
2017-09-01T01:55:58.280Z,0
2017-09-01T01:56:24.387Z,0
2017-09-01T01:56:50.493Z,0
2017-09-01T01:57:16.599Z,0
2017-09-01T01:57:42.713Z,0
2017-09-01T01:58:08.816Z,0
2017-09-01T01:58:34.951Z,0
2017-09-01T01:59:01.033Z,0
2017-09-01T01:59:27.147Z,0
2017-09-01T01:59:53.257Z,0
2017-09-01T02:00:19.379Z,0
2017-09-01T02:00:45.489Z,0
2017-09-01T02:01:11.600Z,0
2017-09-01T02:01:37.710Z,0
2017-09-01T02:02:03.833Z,0
2017-09-01T02:02:29.948Z,0
2017-09-01T02:02:56.050Z,0
2017-09-01T02:03:22.165Z,0
2017-09-01T02:03:48.272Z,0
2017-09-01T02:04:14.373Z,0
2017-09-01T02:04:40.487Z,0
2017-09-01T02:05:06.597Z,0
2017-09-01T02:05:32.716Z,0
2017-09-01T02:05:58.827Z,0
2017-09-01T02:06:24.936Z,0
2017-09-01T02:06:51.043Z,0
2017-09-01T02:07:17.150Z,0
2017-09-01T02:07:43.261Z,0
2017-09-01T02:08:09.366Z,0
2017-09-01T02:08:35.474Z,0
2017-09-01T02:09:01.588Z,0
2017-09-01T02:09:27.686Z,0
2017-09-01T02:09:53.795Z,0
2017-09-01T02:10:19.909Z,0
2017-09-01T02:10:46.018Z,0
2017-09-01T02:11:12.118Z,0
2017-09-01T02:11:38.230Z,0
2017-09-01T02:12:04.342Z,0
2017-09-01T02:12:30.450Z,0
2017-09-01T02:12:56.557Z,0
2017-09-01T02:13:22.671Z,0
2017-09-01T02:13:48.799Z,0
2017-09-01T02:14:14.913Z,0
2017-09-01T02:14:41.018Z,0
2017-09-01T02:15:07.126Z,0
2017-09-01T02:15:33.233Z,0
2017-09-01T02:15:59.339Z,0
2017-09-01T02:16:25.455Z,0
2017-09-01T02:16:51.553Z,0
2017-09-01T02:17:17.661Z,0
2017-09-01T02:17:43.776Z,0
2017-09-01T02:18:09.877Z,0
2017-09-01T02:18:35.991Z,0
2017-09-01T02:19:02.103Z,0
2017-09-01T02:19:28.213Z,0
2017-09-01T02:19:54.325Z,0
2017-09-01T02:20:20.431Z,0
2017-09-01T02:20:46.541Z,0
2017-09-01T02:21:12.645Z,0
2017-09-01T02:21:38.760Z,0
2017-09-01T02:22:04.863Z,0
2017-09-01T02:22:30.970Z,0
2017-09-01T02:22:57.083Z,0
2017-09-01T02:23:23.188Z,0
2017-09-01T02:23:49.302Z,0
2017-09-01T02:24:15.411Z,0
2017-09-01T02:24:41.515Z,0
2017-09-01T02:25:07.630Z,0
2017-09-01T02:25:33.735Z,0
2017-09-01T02:25:59.849Z,0
2017-09-01T02:26:25.954Z,0
2017-09-01T02:26:52.061Z,0
2017-09-01T02:27:18.190Z,0
2017-09-01T02:27:44.303Z,0
2017-09-01T02:28:10.406Z,0
2017-09-01T02:28:36.515Z,0
2017-09-01T02:29:02.625Z,0
2017-09-01T02:29:28.728Z,0
2017-09-01T02:29:54.839Z,0
2017-09-01T02:30:20.945Z,0
2017-09-01T02:30:47.057Z,0
2017-09-01T02:31:13.167Z,0
2017-09-01T02:31:39.275Z,0
2017-09-01T02:32:05.379Z,0
2017-09-01T02:32:31.491Z,0
2017-09-01T02:32:57.607Z,0
2017-09-01T02:33:23.729Z,0
2017-09-01T02:33:49.840Z,0
2017-09-01T02:34:15.941Z,0
2017-09-01T02:34:42.049Z,0
2017-09-01T02:35:08.157Z,0
2017-09-01T02:35:34.286Z,0
2017-09-01T02:36:00.409Z,0
2017-09-01T02:36:26.513Z,0
2017-09-01T02:36:52.644Z,0
2017-09-01T02:37:18.754Z,0
2017-09-01T02:37:44.875Z,0
2017-09-01T02:38:10.986Z,0
2017-09-01T02:38:37.093Z,0
2017-09-01T02:39:03.206Z,0
2017-09-01T02:39:29.314Z,0
2017-09-01T02:39:55.453Z,0
2017-09-01T02:40:21.557Z,0
2017-09-01T02:40:47.672Z,0
2017-09-01T02:41:13.778Z,0
2017-09-01T02:41:39.886Z,0
2017-09-01T02:42:05.990Z,0
2017-09-01T02:42:32.103Z,0
2017-09-01T02:42:58.210Z,0
2017-09-01T02:43:24.321Z,0
2017-09-01T02:43:50.422Z,0
2017-09-01T02:44:16.539Z,0
2017-09-01T02:44:42.649Z,0
2017-09-01T02:45:08.752Z,0
2017-09-01T02:45:34.863Z,0
2017-09-01T02:46:00.967Z,0
2017-09-01T02:46:27.071Z,0
2017-09-01T02:46:53.191Z,0
2017-09-01T02:47:19.311Z,0
2017-09-01T02:47:45.418Z,0
2017-09-01T02:48:11.528Z,0
2017-09-01T02:48:37.649Z,0
2017-09-01T02:49:03.751Z,0
2017-09-01T02:49:29.858Z,0
2017-09-01T02:49:55.978Z,0
2017-09-01T02:50:22.102Z,0
2017-09-01T02:50:48.217Z,0
2017-09-01T02:51:14.324Z,0
2017-09-01T02:51:40.430Z,0
2017-09-01T02:52:06.536Z,0
2017-09-01T02:52:32.652Z,0
2017-09-01T02:52:58.752Z,0
2017-09-01T02:53:24.887Z,0
2017-09-01T02:53:50.991Z,0
2017-09-01T02:54:17.104Z,0
2017-09-01T02:54:43.207Z,0
2017-09-01T02:55:09.321Z,0
2017-09-01T02:55:35.446Z,0
2017-09-01T02:56:01.557Z,0
2017-09-01T02:56:27.672Z,0
2017-09-01T02:56:53.774Z,0
2017-09-01T02:57:19.882Z,0
2017-09-01T02:57:45.996Z,0
2017-09-01T02:58:12.106Z,0
2017-09-01T02:58:38.212Z,0
2017-09-01T02:59:04.324Z,0
2017-09-01T02:59:30.433Z,0
2017-09-01T02:59:56.535Z,0
2017-09-01T03:00:22.649Z,0
2017-09-01T03:00:48.759Z,0
2017-09-01T03:01:14.862Z,0
2017-09-01T03:01:40.978Z,0
2017-09-01T03:02:07.082Z,0
2017-09-01T03:02:33.188Z,0
2017-09-01T03:02:59.297Z,0
2017-09-01T03:03:25.402Z,0
2017-09-01T03:03:51.515Z,0
2017-09-01T03:04:17.627Z,0
2017-09-01T03:04:43.730Z,0
2017-09-01T03:05:09.839Z,0
2017-09-01T03:05:35.945Z,0
2017-09-01T03:06:02.053Z,0
2017-09-01T03:06:28.168Z,0
2017-09-01T03:06:54.270Z,0
2017-09-01T03:07:20.383Z,0
2017-09-01T03:07:46.502Z,0
2017-09-01T03:08:12.624Z,0
2017-09-01T03:08:38.735Z,0
2017-09-01T03:09:04.841Z,0
2017-09-01T03:09:30.940Z,0
2017-09-01T03:09:57.069Z,0
2017-09-01T03:10:23.172Z,0
2017-09-01T03:10:49.278Z,0
2017-09-01T03:11:15.383Z,0
2017-09-01T03:11:41.496Z,0
2017-09-01T03:12:07.601Z,0
2017-09-01T03:12:33.711Z,0
2017-09-01T03:12:59.837Z,0
2017-09-01T03:13:25.941Z,0
2017-09-01T03:13:52.053Z,0
2017-09-01T03:14:18.156Z,0
2017-09-01T03:14:44.266Z,0
2017-09-01T03:15:10.386Z,0
2017-09-01T03:15:36.508Z,0
2017-09-01T03:16:02.617Z,0
2017-09-01T03:16:28.722Z,0
2017-09-01T03:16:54.836Z,0
2017-09-01T03:17:20.940Z,0
2017-09-01T03:17:47.058Z,0
2017-09-01T03:18:13.162Z,0
2017-09-01T03:18:39.266Z,0
2017-09-01T03:19:05.375Z,0
2017-09-01T03:19:31.490Z,0
2017-09-01T03:19:57.593Z,0
2017-09-01T03:20:23.705Z,0
2017-09-01T03:20:49.835Z,0
2017-09-01T03:21:15.940Z,0
2017-09-01T03:21:42.052Z,0
2017-09-01T03:22:08.156Z,0
2017-09-01T03:22:34.267Z,0
2017-09-01T03:23:00.371Z,0
2017-09-01T03:23:26.477Z,0
2017-09-01T03:23:52.586Z,0
2017-09-01T03:24:18.698Z,0
2017-09-01T03:24:44.802Z,0
2017-09-01T03:25:10.924Z,0
2017-09-01T03:25:37.037Z,0
2017-09-01T03:26:03.143Z,0
2017-09-01T03:26:29.252Z,0
2017-09-01T03:26:55.369Z,0
2017-09-01T03:27:21.492Z,0
2017-09-01T03:27:47.606Z,0
2017-09-01T03:28:13.712Z,0
2017-09-01T03:28:39.815Z,0
2017-09-01T03:29:05.927Z,0
2017-09-01T03:29:32.038Z,0
2017-09-01T03:29:58.167Z,0
2017-09-01T03:30:24.276Z,0
2017-09-01T03:30:50.382Z,0
2017-09-01T03:31:16.482Z,0
2017-09-01T03:31:42.597Z,0
2017-09-01T03:32:08.713Z,0
2017-09-01T03:32:34.813Z,0
2017-09-01T03:33:00.924Z,0
2017-09-01T03:33:27.027Z,0
2017-09-01T03:33:53.149Z,0
2017-09-01T03:34:19.255Z,0
2017-09-01T03:34:45.362Z,0
2017-09-01T03:35:11.463Z,0
2017-09-01T03:35:37.567Z,0
2017-09-01T03:36:03.694Z,0
2017-09-01T03:36:29.785Z,0
2017-09-01T03:36:55.895Z,0
2017-09-01T03:37:22.008Z,0
2017-09-01T03:37:48.110Z,0
2017-09-01T03:38:14.219Z,0
2017-09-01T03:38:40.332Z,0
2017-09-01T03:39:06.435Z,0
2017-09-01T03:39:32.551Z,0
2017-09-01T03:39:58.660Z,0
2017-09-01T03:40:24.768Z,0
2017-09-01T03:40:50.869Z,0
2017-09-01T03:41:16.984Z,0
2017-09-01T03:41:43.096Z,0
2017-09-01T03:42:09.198Z,0
2017-09-01T03:42:35.310Z,0
2017-09-01T03:43:01.416Z,0
2017-09-01T03:43:27.544Z,0
2017-09-01T03:43:53.652Z,0
2017-09-01T03:44:19.754Z,0
2017-09-01T03:44:45.868Z,0
2017-09-01T03:45:11.978Z,0
2017-09-01T03:45:38.082Z,0
2017-09-01T03:46:04.192Z,0
2017-09-01T03:46:30.296Z,0
2017-09-01T03:46:56.407Z,0
2017-09-01T03:47:22.512Z,0
2017-09-01T03:47:48.618Z,0
2017-09-01T03:48:14.727Z,0
2017-09-01T03:48:40.833Z,0
2017-09-01T03:49:06.945Z,0
2017-09-01T03:49:33.049Z,0
2017-09-01T03:49:59.161Z,0
2017-09-01T03:50:25.282Z,0
2017-09-01T03:50:51.393Z,0
2017-09-01T03:51:17.501Z,0
2017-09-01T03:51:43.608Z,0
2017-09-01T03:52:09.717Z,0
2017-09-01T03:52:35.820Z,0
2017-09-01T03:53:01.932Z,0
2017-09-01T03:53:28.049Z,0
2017-09-01T03:53:54.154Z,0
2017-09-01T03:54:20.260Z,0
2017-09-01T03:54:46.363Z,0
2017-09-01T03:55:12.472Z,0
2017-09-01T03:55:38.576Z,0
2017-09-01T03:56:04.681Z,0
2017-09-01T03:56:30.790Z,0
2017-09-01T03:56:56.892Z,0
2017-09-01T03:57:22.998Z,0
2017-09-01T03:57:49.106Z,0
2017-09-01T03:58:15.222Z,0
2017-09-01T03:58:41.326Z,0
2017-09-01T03:59:07.431Z,0
2017-09-01T03:59:33.544Z,0
2017-09-01T03:59:59.651Z,0
2017-09-01T04:00:25.767Z,0
2017-09-01T04:00:51.876Z,0
2017-09-01T04:01:17.980Z,0
2017-09-01T04:01:44.089Z,0
2017-09-01T04:02:10.199Z,0
2017-09-01T04:02:36.307Z,0
2017-09-01T04:03:02.440Z,0
2017-09-01T04:03:28.542Z,0
2017-09-01T04:03:54.657Z,0
2017-09-01T04:04:20.760Z,0
2017-09-01T04:04:46.872Z,0
2017-09-01T04:05:12.985Z,0
2017-09-01T04:05:39.086Z,0
2017-09-01T04:06:05.197Z,0
2017-09-01T04:06:31.302Z,0
2017-09-01T04:06:57.414Z,0
2017-09-01T04:07:23.519Z,0
2017-09-01T04:07:49.625Z,0
2017-09-01T04:08:15.733Z,0
2017-09-01T04:08:41.839Z,0
2017-09-01T04:09:07.951Z,0
2017-09-01T04:09:34.063Z,0
2017-09-01T04:10:00.166Z,4
2017-09-01T04:10:26.278Z,4
2017-09-01T04:10:52.381Z,4
2017-09-01T04:11:18.487Z,4
2017-09-01T04:11:44.603Z,4
2017-09-01T04:12:10.708Z,4
2017-09-01T04:12:36.811Z,4
2017-09-01T04:13:02.918Z,0
2017-09-01T04:13:29.030Z,4
2017-09-01T04:13:55.148Z,4
2017-09-01T04:14:21.253Z,4
2017-09-01T04:14:47.358Z,4
2017-09-01T04:15:13.465Z,4
2017-09-01T04:15:39.578Z,8
2017-09-01T04:16:05.687Z,8
2017-09-01T04:16:31.801Z,4
2017-09-01T04:16:57.909Z,4
2017-09-01T04:17:24.015Z,8
2017-09-01T04:17:50.120Z,8
2017-09-01T04:18:16.223Z,8
2017-09-01T04:18:42.331Z,8
2017-09-01T04:19:08.436Z,8
2017-09-01T04:19:34.551Z,12
2017-09-01T04:20:00.666Z,12
2017-09-01T04:20:26.770Z,12
2017-09-01T04:20:52.875Z,12
2017-09-01T04:21:18.989Z,16
2017-09-01T04:21:45.095Z,16
2017-09-01T04:22:11.208Z,16
2017-09-01T04:22:37.314Z,16
2017-09-01T04:23:03.423Z,20
2017-09-01T04:23:29.535Z,20
2017-09-01T04:23:55.639Z,24
2017-09-01T04:24:21.765Z,24
2017-09-01T04:24:47.879Z,24
2017-09-01T04:25:13.982Z,28
2017-09-01T04:25:40.092Z,28
2017-09-01T04:26:06.197Z,32
2017-09-01T04:26:32.307Z,32
2017-09-01T04:26:58.418Z,36
2017-09-01T04:27:24.521Z,36
2017-09-01T04:27:50.629Z,36
2017-09-01T04:28:16.741Z,40
2017-09-01T04:28:42.866Z,44
2017-09-01T04:29:08.971Z,48
2017-09-01T04:29:35.086Z,48
2017-09-01T04:30:01.211Z,56
2017-09-01T04:30:27.313Z,56
2017-09-01T04:30:53.425Z,60
2017-09-01T04:31:19.536Z,64
2017-09-01T04:31:45.640Z,68
2017-09-01T04:32:11.749Z,68
2017-09-01T04:32:37.856Z,76
2017-09-01T04:33:03.964Z,80
2017-09-01T04:33:30.074Z,84
2017-09-01T04:33:56.201Z,88
2017-09-01T04:34:22.305Z,92
2017-09-01T04:34:48.417Z,96
2017-09-01T04:35:14.520Z,104
2017-09-01T04:35:40.629Z,108
2017-09-01T04:36:06.734Z,116
2017-09-01T04:36:32.843Z,120
2017-09-01T04:36:58.953Z,124
2017-09-01T04:37:25.060Z,132
2017-09-01T04:37:51.166Z,140
2017-09-01T04:38:17.270Z,148
2017-09-01T04:38:43.381Z,156
2017-09-01T04:39:09.488Z,164
2017-09-01T04:39:35.602Z,168
2017-09-01T04:40:01.728Z,176
2017-09-01T04:40:27.834Z,184
2017-09-01T04:40:53.947Z,192
2017-09-01T04:41:20.048Z,204
2017-09-01T04:41:46.155Z,212
2017-09-01T04:42:12.266Z,220
2017-09-01T04:42:38.389Z,232
2017-09-01T04:43:04.496Z,244
2017-09-01T04:43:30.622Z,256
2017-09-01T04:43:56.728Z,264
2017-09-01T04:44:22.842Z,276
2017-09-01T04:44:48.952Z,288
2017-09-01T04:45:15.066Z,300
2017-09-01T04:45:41.169Z,312
2017-09-01T04:46:07.275Z,324
2017-09-01T04:46:33.386Z,336
2017-09-01T04:46:59.504Z,348
2017-09-01T04:47:25.618Z,364
2017-09-01T04:47:51.728Z,376
2017-09-01T04:48:17.835Z,388
2017-09-01T04:48:43.947Z,404
2017-09-01T04:49:10.052Z,416
2017-09-01T04:49:36.157Z,436
2017-09-01T04:50:02.270Z,452
2017-09-01T04:50:28.373Z,472
2017-09-01T04:50:54.486Z,488
2017-09-01T04:51:20.588Z,512
2017-09-01T04:51:46.702Z,524
2017-09-01T04:52:12.812Z,548
2017-09-01T04:52:38.916Z,564
2017-09-01T04:53:05.033Z,584
2017-09-01T04:53:31.141Z,604
2017-09-01T04:53:57.241Z,620
2017-09-01T04:54:23.350Z,640
2017-09-01T04:54:49.463Z,656
2017-09-01T04:55:15.566Z,676
2017-09-01T04:55:41.672Z,696
2017-09-01T04:56:07.785Z,708
2017-09-01T04:56:33.884Z,724
2017-09-01T04:56:59.994Z,736
2017-09-01T04:57:26.098Z,744
2017-09-01T04:57:52.213Z,752
2017-09-01T04:58:18.319Z,764
2017-09-01T04:58:44.433Z,776
2017-09-01T04:59:10.537Z,788
2017-09-01T04:59:36.648Z,800
2017-09-01T05:00:02.755Z,816
2017-09-01T05:00:28.871Z,832
2017-09-01T05:00:54.990Z,848
2017-09-01T05:01:21.098Z,868
2017-09-01T05:01:47.209Z,892
2017-09-01T05:02:13.322Z,912
2017-09-01T05:02:39.436Z,940
2017-09-01T05:03:05.539Z,964
2017-09-01T05:03:31.659Z,988
2017-09-01T05:03:57.768Z,1016
2017-09-01T05:04:23.871Z,1044
2017-09-01T05:04:49.986Z,1076
2017-09-01T05:05:16.093Z,1108
2017-09-01T05:05:42.195Z,1140
2017-09-01T05:06:08.302Z,1176
2017-09-01T05:06:34.414Z,1208
2017-09-01T05:07:00.517Z,1244
2017-09-01T05:07:26.733Z,1280
2017-09-01T05:07:52.854Z,1320
2017-09-01T05:08:18.976Z,1360
2017-09-01T05:08:45.078Z,1400
2017-09-01T05:09:11.257Z,1444
2017-09-01T05:09:37.394Z,1484
2017-09-01T05:10:03.507Z,1528
2017-09-01T05:10:29.612Z,1568
2017-09-01T05:10:55.724Z,1616
2017-09-01T05:11:21.832Z,1664
2017-09-01T05:11:47.944Z,1712
2017-09-01T05:12:14.053Z,1756
2017-09-01T05:12:40.156Z,1804
2017-09-01T05:13:06.268Z,1852
2017-09-01T05:13:32.372Z,1892
2017-09-01T05:13:58.484Z,1932
2017-09-01T05:14:24.592Z,1968
2017-09-01T05:14:50.695Z,2008
2017-09-01T05:15:16.807Z,2044
2017-09-01T05:15:42.909Z,2088
2017-09-01T05:16:09.074Z,2136
2017-09-01T05:16:35.191Z,2188
2017-09-01T05:17:01.295Z,2248
2017-09-01T05:17:27.494Z,2312
2017-09-01T05:17:53.521Z,2376
2017-09-01T05:18:19.627Z,2444
2017-09-01T05:18:45.744Z,2524
2017-09-01T05:19:11.850Z,2596
2017-09-01T05:19:37.974Z,2680
2017-09-01T05:20:04.105Z,2768
2017-09-01T05:20:30.213Z,2848
2017-09-01T05:20:56.319Z,2940
2017-09-01T05:21:22.428Z,3036
2017-09-01T05:21:48.526Z,3132
2017-09-01T05:22:14.634Z,3240
2017-09-01T05:22:40.748Z,3348
2017-09-01T05:23:06.858Z,3460
2017-09-01T05:23:32.961Z,3564
2017-09-01T05:23:59.092Z,3672
2017-09-01T05:24:25.199Z,3776
2017-09-01T05:24:51.310Z,3876
2017-09-01T05:25:17.422Z,3964
2017-09-01T05:25:43.522Z,4048
2017-09-01T05:26:09.653Z,4124
2017-09-01T05:26:35.743Z,4200
2017-09-01T05:27:01.857Z,4264
2017-09-01T05:27:27.956Z,4320
2017-09-01T05:27:54.063Z,4372
2017-09-01T05:28:20.173Z,4420
2017-09-01T05:28:46.290Z,4464
2017-09-01T05:29:12.399Z,4500
2017-09-01T05:29:38.509Z,4528
2017-09-01T05:30:04.638Z,4548
2017-09-01T05:30:30.746Z,4568
2017-09-01T05:30:56.849Z,4576
2017-09-01T05:31:22.964Z,4584
2017-09-01T05:31:49.066Z,4584
2017-09-01T05:32:15.174Z,4580
2017-09-01T05:32:41.285Z,4564
2017-09-01T05:33:07.400Z,4556
2017-09-01T05:33:33.506Z,4548
2017-09-01T05:33:59.611Z,4540
2017-09-01T05:34:25.724Z,4536
2017-09-01T05:34:51.829Z,4528
2017-09-01T05:35:17.958Z,4524
2017-09-01T05:35:44.070Z,4520
2017-09-01T05:36:10.177Z,4528
2017-09-01T05:36:36.289Z,4544
2017-09-01T05:37:02.393Z,4560
2017-09-01T05:37:28.505Z,4592
2017-09-01T05:37:54.611Z,4636
2017-09-01T05:38:20.724Z,4680
2017-09-01T05:38:46.832Z,4728
2017-09-01T05:39:12.936Z,4776
2017-09-01T05:39:39.046Z,4832
2017-09-01T05:40:05.156Z,4888
2017-09-01T05:40:31.259Z,4936
2017-09-01T05:40:57.366Z,4984
2017-09-01T05:41:23.481Z,5040
2017-09-01T05:41:49.584Z,5096
2017-09-01T05:42:15.703Z,5148
2017-09-01T05:42:41.809Z,5204
2017-09-01T05:43:07.916Z,5260
2017-09-01T05:43:34.022Z,5316
2017-09-01T05:44:00.133Z,5372
2017-09-01T05:44:26.243Z,5428
2017-09-01T05:44:52.346Z,5476
2017-09-01T05:45:18.460Z,5528
2017-09-01T05:45:44.566Z,5576
2017-09-01T05:46:10.676Z,5624
2017-09-01T05:46:36.779Z,5692
2017-09-01T05:47:02.886Z,5752
2017-09-01T05:47:29.000Z,5816
2017-09-01T05:47:55.125Z,5872
2017-09-01T05:48:21.239Z,5916
2017-09-01T05:48:47.342Z,5952
2017-09-01T05:49:13.477Z,5988
2017-09-01T05:49:39.564Z,6048
2017-09-01T05:50:05.669Z,6116
2017-09-01T05:50:31.776Z,6212
2017-09-01T05:50:57.906Z,6324
2017-09-01T05:51:24.036Z,6444
2017-09-01T05:51:50.138Z,6592
2017-09-01T05:52:16.252Z,6752
2017-09-01T05:52:42.357Z,6932
2017-09-01T05:53:08.467Z,7140
2017-09-01T05:53:34.573Z,7360
2017-09-01T05:54:00.681Z,7584
2017-09-01T05:54:26.786Z,7784
2017-09-01T05:54:52.914Z,7960
2017-09-01T05:55:19.016Z,8108
2017-09-01T05:55:45.128Z,8232
2017-09-01T05:56:11.244Z,8328
2017-09-01T05:56:37.366Z,8408
2017-09-01T05:57:03.480Z,8456
2017-09-01T05:57:29.602Z,8488
2017-09-01T05:57:55.714Z,8504
2017-09-01T05:58:21.818Z,8512
2017-09-01T05:58:47.930Z,8512
2017-09-01T05:59:14.042Z,8504
2017-09-01T05:59:40.167Z,8496
2017-09-01T06:00:06.265Z,8492
2017-09-01T06:00:32.378Z,8488
2017-09-01T06:00:58.488Z,8492
2017-09-01T06:01:24.598Z,8480
2017-09-01T06:01:50.710Z,8440
2017-09-01T06:02:16.813Z,8372
2017-09-01T06:02:42.923Z,8284
2017-09-01T06:03:09.030Z,8180
2017-09-01T06:03:35.144Z,8052
2017-09-01T06:04:01.248Z,7896
2017-09-01T06:04:27.353Z,7700
2017-09-01T06:04:53.467Z,7480
2017-09-01T06:05:19.578Z,7244
2017-09-01T06:05:45.683Z,7016
2017-09-01T06:06:11.788Z,6800
2017-09-01T06:06:37.920Z,6596
2017-09-01T06:07:04.030Z,6392
2017-09-01T06:07:30.138Z,6204
2017-09-01T06:07:56.242Z,6024
2017-09-01T06:08:22.357Z,5872
2017-09-01T06:08:48.459Z,5744
2017-09-01T06:09:14.574Z,5636
2017-09-01T06:09:40.709Z,5548
2017-09-01T06:10:06.813Z,5480
2017-09-01T06:10:32.926Z,5420
2017-09-01T06:10:59.029Z,5372
2017-09-01T06:11:25.147Z,5332
2017-09-01T06:11:51.270Z,5292
2017-09-01T06:12:17.383Z,5264
2017-09-01T06:12:43.549Z,5240
2017-09-01T06:13:09.689Z,5224
2017-09-01T06:13:35.807Z,5216
2017-09-01T06:14:01.909Z,5216
2017-09-01T06:14:28.099Z,5212
2017-09-01T06:14:54.898Z,5204
2017-09-01T06:15:21.078Z,5200